sensor_id;sensor_type;location;lat;lon;timestamp;temperature;humidity
52799;DHT22;38667;42.872;74.622;2023-11-21T00:00:12;6.60;83.20
52799;DHT22;38667;42.872;74.622;2023-11-21T00:02:40;6.50;83.60
52799;DHT22;38667;42.872;74.622;2023-11-21T00:05:07;6.40;83.10
52799;DHT22;38667;42.872;74.622;2023-11-21T00:07:33;6.50;84.50
52799;DHT22;38667;42.872;74.622;2023-11-21T00:09:59;6.50;83.30
52799;DHT22;38667;42.872;74.622;2023-11-21T00:12:26;6.50;83.40
52799;DHT22;38667;42.872;74.622;2023-11-21T00:14:52;6.50;83.40
52799;DHT22;38667;42.872;74.622;2023-11-21T00:17:18;6.40;84.00
52799;DHT22;38667;42.872;74.622;2023-11-21T00:19:46;6.40;83.90
52799;DHT22;38667;42.872;74.622;2023-11-21T00:22:12;6.50;82.90
52799;DHT22;38667;42.872;74.622;2023-11-21T00:24:39;6.40;83.00
52799;DHT22;38667;42.872;74.622;2023-11-21T00:27:05;6.40;83.90
52799;DHT22;38667;42.872;74.622;2023-11-21T00:29:31;6.30;83.90
52799;DHT22;38667;42.872;74.622;2023-11-21T00:31:58;6.30;85.00
52799;DHT22;38667;42.872;74.622;2023-11-21T00:34:24;6.30;84.40
52799;DHT22;38667;42.872;74.622;2023-11-21T00:36:52;6.20;83.90
52799;DHT22;38667;42.872;74.622;2023-11-21T00:39:18;6.30;84.30
52799;DHT22;38667;42.872;74.622;2023-11-21T00:41:44;6.30;84.40
52799;DHT22;38667;42.872;74.622;2023-11-21T00:44:11;6.20;83.50
52799;DHT22;38667;42.872;74.622;2023-11-21T00:46:37;6.20;83.80
52799;DHT22;38667;42.872;74.622;2023-11-21T00:49:03;6.20;82.90
52799;DHT22;38667;42.872;74.622;2023-11-21T00:51:30;6.20;82.90
52799;DHT22;38667;42.872;74.622;2023-11-21T00:53:58;6.20;82.80
52799;DHT22;38667;42.872;74.622;2023-11-21T00:56:24;6.20;83.10
52799;DHT22;38667;42.872;74.622;2023-11-21T00:58:50;6.20;83.20
52799;DHT22;38667;42.872;74.622;2023-11-21T01:01:17;6.30;83.40
52799;DHT22;38667;42.872;74.622;2023-11-21T01:03:43;6.30;82.60
52799;DHT22;38667;42.872;74.622;2023-11-21T01:06:09;6.30;82.60
52799;DHT22;38667;42.872;74.622;2023-11-21T01:08:36;6.30;82.40
52799;DHT22;38667;42.872;74.622;2023-11-21T01:11:04;6.30;82.80
52799;DHT22;38667;42.872;74.622;2023-11-21T01:13:30;6.30;81.60
52799;DHT22;38667;42.872;74.622;2023-11-21T01:15:57;6.40;80.80
52799;DHT22;38667;42.872;74.622;2023-11-21T01:18:23;6.40;80.50
52799;DHT22;38667;42.872;74.622;2023-11-21T01:20:49;6.40;80.20
52799;DHT22;38667;42.872;74.622;2023-11-21T01:23:16;6.40;79.80
52799;DHT22;38667;42.872;74.622;2023-11-21T01:25:42;6.30;79.50
52799;DHT22;38667;42.872;74.622;2023-11-21T01:28:10;6.30;79.20
52799;DHT22;38667;42.872;74.622;2023-11-21T01:30:36;6.40;78.90
52799;DHT22;38667;42.872;74.622;2023-11-21T01:33:02;6.40;78.80
52799;DHT22;38667;42.872;74.622;2023-11-21T01:35:29;6.50;79.10
52799;DHT22;38667;42.872;74.622;2023-11-21T01:37:55;6.50;78.70
52799;DHT22;38667;42.872;74.622;2023-11-21T01:40:21;6.60;77.50
52799;DHT22;38667;42.872;74.622;2023-11-21T01:42:48;6.70;77.30
52799;DHT22;38667;42.872;74.622;2023-11-21T01:45:16;6.70;77.00
52799;DHT22;38667;42.872;74.622;2023-11-21T01:47:43;6.70;78.00
52799;DHT22;38667;42.872;74.622;2023-11-21T01:50:14;6.70;78.00
52799;DHT22;38667;42.872;74.622;2023-11-21T01:52:41;6.60;77.20
52799;DHT22;38667;42.872;74.622;2023-11-21T01:55:09;6.70;76.00
52799;DHT22;38667;42.872;74.622;2023-11-21T01:57:36;6.70;75.90
52799;DHT22;38667;42.872;74.622;2023-11-21T02:00:04;6.70;76.70
52799;DHT22;38667;42.872;74.622;2023-11-21T02:02:32;6.70;76.20
52799;DHT22;38667;42.872;74.622;2023-11-21T02:04:58;6.80;75.90
52799;DHT22;38667;42.872;74.622;2023-11-21T02:07:24;6.80;76.70
52799;DHT22;38667;42.872;74.622;2023-11-21T02:09:50;6.80;75.60
52799;DHT22;38667;42.872;74.622;2023-11-21T02:12:17;6.80;75.60
52799;DHT22;38667;42.872;74.622;2023-11-21T02:14:43;6.90;74.00
52799;DHT22;38667;42.872;74.622;2023-11-21T02:17:10;6.90;73.00
52799;DHT22;38667;42.872;74.622;2023-11-21T02:19:37;6.80;73.70
52799;DHT22;38667;42.872;74.622;2023-11-21T02:22:04;6.80;73.30
52799;DHT22;38667;42.872;74.622;2023-11-21T02:24:32;6.90;72.80
52799;DHT22;38667;42.872;74.622;2023-11-21T02:26:58;6.90;72.80
52799;DHT22;38667;42.872;74.622;2023-11-21T02:29:25;6.90;72.50
52799;DHT22;38667;42.872;74.622;2023-11-21T02:31:52;6.90;73.90
52799;DHT22;38667;42.872;74.622;2023-11-21T02:34:19;6.90;73.10
52799;DHT22;38667;42.872;74.622;2023-11-21T02:36:45;6.90;73.10
52799;DHT22;38667;42.872;74.622;2023-11-21T02:39:11;6.90;72.80
52799;DHT22;38667;42.872;74.622;2023-11-21T02:41:39;7.00;72.30
52799;DHT22;38667;42.872;74.622;2023-11-21T02:44:06;7.00;72.50
52799;DHT22;38667;42.872;74.622;2023-11-21T02:46:33;7.10;72.80
52799;DHT22;38667;42.872;74.622;2023-11-21T02:48:59;7.10;72.70
52799;DHT22;38667;42.872;74.622;2023-11-21T02:51:25;7.10;72.70
52799;DHT22;38667;42.872;74.622;2023-11-21T02:53:52;7.10;72.40
52799;DHT22;38667;42.872;74.622;2023-11-21T02:56:18;7.20;72.30
52799;DHT22;38667;42.872;74.622;2023-11-21T02:58:46;7.40;71.40
52799;DHT22;38667;42.872;74.622;2023-11-21T03:01:12;7.50;68.80
52799;DHT22;38667;42.872;74.622;2023-11-21T03:03:39;7.60;67.40
52799;DHT22;38667;42.872;74.622;2023-11-21T03:06:06;7.60;66.80
52799;DHT22;38667;42.872;74.622;2023-11-21T03:08:32;7.70;68.10
52799;DHT22;38667;42.872;74.622;2023-11-21T03:10:58;7.80;68.40
52799;DHT22;38667;42.872;74.622;2023-11-21T03:13:25;7.80;68.00
52799;DHT22;38667;42.872;74.622;2023-11-21T03:15:53;7.80;68.70
52799;DHT22;38667;42.872;74.622;2023-11-21T03:18:19;7.90;68.20
52799;DHT22;38667;42.872;74.622;2023-11-21T03:20:45;7.90;68.00
52799;DHT22;38667;42.872;74.622;2023-11-21T03:23:12;8.00;68.80
52799;DHT22;38667;42.872;74.622;2023-11-21T03:25:38;8.10;69.60
52799;DHT22;38667;42.872;74.622;2023-11-21T03:28:04;8.20;70.90
52799;DHT22;38667;42.872;74.622;2023-11-21T03:30:31;8.20;70.00
52799;DHT22;38667;42.872;74.622;2023-11-21T03:32:58;8.20;69.40
52799;DHT22;38667;42.872;74.622;2023-11-21T03:35:25;8.30;69.50
52799;DHT22;38667;42.872;74.622;2023-11-21T03:37:51;8.40;70.50
52799;DHT22;38667;42.872;74.622;2023-11-21T03:40:17;8.50;70.40
52799;DHT22;38667;42.872;74.622;2023-11-21T03:42:44;8.60;69.90
52799;DHT22;38667;42.872;74.622;2023-11-21T03:45:10;8.70;68.80
52799;DHT22;38667;42.872;74.622;2023-11-21T03:47:36;8.80;68.60
52799;DHT22;38667;42.872;74.622;2023-11-21T03:50:05;9.00;68.50
52799;DHT22;38667;42.872;74.622;2023-11-21T03:52:31;9.10;69.30
52799;DHT22;38667;42.872;74.622;2023-11-21T03:54:58;9.20;69.40
52799;DHT22;38667;42.872;74.622;2023-11-21T03:57:24;9.20;68.30
52799;DHT22;38667;42.872;74.622;2023-11-21T03:59:50;9.30;68.10
52799;DHT22;38667;42.872;74.622;2023-11-21T04:02:16;9.50;68.30
52799;DHT22;38667;42.872;74.622;2023-11-21T04:04:43;9.60;66.80
52799;DHT22;38667;42.872;74.622;2023-11-21T04:07:11;9.70;66.80
52799;DHT22;38667;42.872;74.622;2023-11-21T04:09:37;9.90;67.20
52799;DHT22;38667;42.872;74.622;2023-11-21T04:12:04;10.00;66.90
52799;DHT22;38667;42.872;74.622;2023-11-21T04:14:30;10.10;67.00
52799;DHT22;38667;42.872;74.622;2023-11-21T04:16:56;10.20;65.60
52799;DHT22;38667;42.872;74.622;2023-11-21T04:19:23;10.30;65.40
52799;DHT22;38667;42.872;74.622;2023-11-21T04:21:49;10.40;65.40
52799;DHT22;38667;42.872;74.622;2023-11-21T04:24:17;10.50;65.10
52799;DHT22;38667;42.872;74.622;2023-11-21T04:26:44;10.50;64.80
52799;DHT22;38667;42.872;74.622;2023-11-21T04:29:10;10.60;64.10
52799;DHT22;38667;42.872;74.622;2023-11-21T04:31:36;10.60;63.90
52799;DHT22;38667;42.872;74.622;2023-11-21T04:34:02;10.80;61.80
52799;DHT22;38667;42.872;74.622;2023-11-21T04:36:29;10.80;61.60
52799;DHT22;38667;42.872;74.622;2023-11-21T04:38:55;10.90;60.70
52799;DHT22;38667;42.872;74.622;2023-11-21T04:41:23;11.00;59.20
52799;DHT22;38667;42.872;74.622;2023-11-21T04:43:49;11.10;59.50
52799;DHT22;38667;42.872;74.622;2023-11-21T04:46:15;11.20;59.10
52799;DHT22;38667;42.872;74.622;2023-11-21T04:48:42;11.30;59.10
52799;DHT22;38667;42.872;74.622;2023-11-21T04:51:08;11.30;59.20
52799;DHT22;38667;42.872;74.622;2023-11-21T04:53:34;11.40;59.50
52799;DHT22;38667;42.872;74.622;2023-11-21T04:56:01;11.40;59.00
52799;DHT22;38667;42.872;74.622;2023-11-21T04:58:28;11.50;59.20
52799;DHT22;38667;42.872;74.622;2023-11-21T05:00:55;11.60;57.80
52799;DHT22;38667;42.872;74.622;2023-11-21T05:03:21;11.60;57.70
52799;DHT22;38667;42.872;74.622;2023-11-21T05:05:47;11.70;57.60
52799;DHT22;38667;42.872;74.622;2023-11-21T05:08:14;11.80;57.10
52799;DHT22;38667;42.872;74.622;2023-11-21T05:10:40;12.00;57.30
52799;DHT22;38667;42.872;74.622;2023-11-21T05:13:06;12.00;56.80
52799;DHT22;38667;42.872;74.622;2023-11-21T05:15:34;12.10;57.10
52799;DHT22;38667;42.872;74.622;2023-11-21T05:18:00;12.20;57.20
52799;DHT22;38667;42.872;74.622;2023-11-21T05:20:27;12.40;57.50
52799;DHT22;38667;42.872;74.622;2023-11-21T05:22:53;12.50;57.60
52799;DHT22;38667;42.872;74.622;2023-11-21T05:25:19;12.60;56.80
52799;DHT22;38667;42.872;74.622;2023-11-21T05:27:46;12.70;56.70
52799;DHT22;38667;42.872;74.622;2023-11-21T05:30:12;12.70;57.10
52799;DHT22;38667;42.872;74.622;2023-11-21T05:32:41;12.80;58.40
52799;DHT22;38667;42.872;74.622;2023-11-21T05:35:08;12.90;59.00
52799;DHT22;38667;42.872;74.622;2023-11-21T05:37:34;13.00;59.50
52799;DHT22;38667;42.872;74.622;2023-11-21T05:40:00;13.00;60.50
52799;DHT22;38667;42.872;74.622;2023-11-21T05:42:26;13.00;61.20
52799;DHT22;38667;42.872;74.622;2023-11-21T05:44:53;13.10;61.50
52799;DHT22;38667;42.872;74.622;2023-11-21T05:47:19;13.10;62.20
52799;DHT22;38667;42.872;74.622;2023-11-21T05:49:47;13.20;62.40
52799;DHT22;38667;42.872;74.622;2023-11-21T05:52:13;13.30;62.70
52799;DHT22;38667;42.872;74.622;2023-11-21T05:54:39;13.30;62.30
52799;DHT22;38667;42.872;74.622;2023-11-21T05:57:06;13.40;62.00
52799;DHT22;38667;42.872;74.622;2023-11-21T05:59:32;13.50;62.40
52799;DHT22;38667;42.872;74.622;2023-11-21T06:01:58;13.40;61.50
52799;DHT22;38667;42.872;74.622;2023-11-21T06:04:25;13.50;61.50
52799;DHT22;38667;42.872;74.622;2023-11-21T06:06:53;13.60;61.50
52799;DHT22;38667;42.872;74.622;2023-11-21T06:09:20;13.60;61.60
52799;DHT22;38667;42.872;74.622;2023-11-21T06:11:46;13.60;61.10
52799;DHT22;38667;42.872;74.622;2023-11-21T06:14:12;13.70;61.60
52799;DHT22;38667;42.872;74.622;2023-11-21T06:16:38;13.70;61.80
52799;DHT22;38667;42.872;74.622;2023-11-21T06:19:05;13.70;60.90
52799;DHT22;38667;42.872;74.622;2023-11-21T06:21:31;13.80;60.80
52799;DHT22;38667;42.872;74.622;2023-11-21T06:23:59;13.80;60.90
52799;DHT22;38667;42.872;74.622;2023-11-21T06:26:25;13.90;59.90
52799;DHT22;38667;42.872;74.622;2023-11-21T06:28:52;13.90;59.50
52799;DHT22;38667;42.872;74.622;2023-11-21T06:31:19;14.00;59.50
52799;DHT22;38667;42.872;74.622;2023-11-21T06:33:45;14.00;59.60
52799;DHT22;38667;42.872;74.622;2023-11-21T06:36:11;14.10;59.10
52799;DHT22;38667;42.872;74.622;2023-11-21T06:38:38;14.10;58.80
52799;DHT22;38667;42.872;74.622;2023-11-21T06:41:06;14.20;58.30
52799;DHT22;38667;42.872;74.622;2023-11-21T06:43:32;14.20;58.20
52799;DHT22;38667;42.872;74.622;2023-11-21T06:45:59;14.30;58.40
52799;DHT22;38667;42.872;74.622;2023-11-21T06:48:25;14.40;58.50
52799;DHT22;38667;42.872;74.622;2023-11-21T06:50:51;14.50;58.60
52799;DHT22;38667;42.872;74.622;2023-11-21T06:53:18;14.60;58.50
52799;DHT22;38667;42.872;74.622;2023-11-21T06:55:44;14.60;58.40
52799;DHT22;38667;42.872;74.622;2023-11-21T06:58:12;14.70;57.90
52799;DHT22;38667;42.872;74.622;2023-11-21T07:00:38;14.70;58.10
52799;DHT22;38667;42.872;74.622;2023-11-21T07:03:04;14.80;57.10
52799;DHT22;38667;42.872;74.622;2023-11-21T07:05:31;14.90;57.80
52799;DHT22;38667;42.872;74.622;2023-11-21T07:07:57;14.90;57.20
52799;DHT22;38667;42.872;74.622;2023-11-21T07:10:23;15.00;57.50
52799;DHT22;38667;42.872;74.622;2023-11-21T07:12:50;15.00;57.20
52799;DHT22;38667;42.872;74.622;2023-11-21T07:15:18;15.00;57.00
52799;DHT22;38667;42.872;74.622;2023-11-21T07:17:44;15.10;56.90
52799;DHT22;38667;42.872;74.622;2023-11-21T07:20:11;15.20;56.60
52799;DHT22;38667;42.872;74.622;2023-11-21T07:22:37;15.20;56.20
52799;DHT22;38667;42.872;74.622;2023-11-21T07:25:04;15.30;56.10
52799;DHT22;38667;42.872;74.622;2023-11-21T07:27:31;15.40;55.30
52799;DHT22;38667;42.872;74.622;2023-11-21T07:29:57;15.40;55.50
52799;DHT22;38667;42.872;74.622;2023-11-21T07:32:25;15.40;55.40
52799;DHT22;38667;42.872;74.622;2023-11-21T07:34:51;15.50;55.10
52799;DHT22;38667;42.872;74.622;2023-11-21T07:37:17;15.60;54.90
52799;DHT22;38667;42.872;74.622;2023-11-21T07:39:44;15.60;54.30
52799;DHT22;38667;42.872;74.622;2023-11-21T07:42:10;15.70;54.40
52799;DHT22;38667;42.872;74.622;2023-11-21T07:44:36;15.70;54.40
52799;DHT22;38667;42.872;74.622;2023-11-21T07:47:03;15.80;54.30
52799;DHT22;38667;42.872;74.622;2023-11-21T07:49:30;15.80;54.30
52799;DHT22;38667;42.872;74.622;2023-11-21T07:51:57;15.90;53.90
52799;DHT22;38667;42.872;74.622;2023-11-21T07:54:23;15.90;54.10
52799;DHT22;38667;42.872;74.622;2023-11-21T07:56:49;16.00;54.30
52799;DHT22;38667;42.872;74.622;2023-11-21T07:59:16;16.10;53.00
52799;DHT22;38667;42.872;74.622;2023-11-21T08:01:42;16.10;52.60
52799;DHT22;38667;42.872;74.622;2023-11-21T08:04:08;16.20;52.90
52799;DHT22;38667;42.872;74.622;2023-11-21T08:06:36;16.20;52.40
52799;DHT22;38667;42.872;74.622;2023-11-21T08:09:03;16.30;51.90
52799;DHT22;38667;42.872;74.622;2023-11-21T08:11:29;16.40;51.40
52799;DHT22;38667;42.872;74.622;2023-11-21T08:13:55;16.40;51.10
52799;DHT22;38667;42.872;74.622;2023-11-21T08:16:21;16.50;51.00
52799;DHT22;38667;42.872;74.622;2023-11-21T08:18:48;16.60;50.50
52799;DHT22;38667;42.872;74.622;2023-11-21T08:21:14;16.70;50.30
52799;DHT22;38667;42.872;74.622;2023-11-21T08:23:42;16.70;50.50
52799;DHT22;38667;42.872;74.622;2023-11-21T08:26:08;16.70;50.90
52799;DHT22;38667;42.872;74.622;2023-11-21T08:28:35;16.70;51.60
52799;DHT22;38667;42.872;74.622;2023-11-21T08:31:01;16.70;52.60
52799;DHT22;38667;42.872;74.622;2023-11-21T08:33:27;16.60;53.40
52799;DHT22;38667;42.872;74.622;2023-11-21T08:35:54;16.60;53.40
52799;DHT22;38667;42.872;74.622;2023-11-21T08:38:20;16.50;53.60
52799;DHT22;38667;42.872;74.622;2023-11-21T08:40:48;16.60;53.40
52799;DHT22;38667;42.872;74.622;2023-11-21T08:43:14;16.60;53.90
52799;DHT22;38667;42.872;74.622;2023-11-21T08:45:40;16.60;54.00
52799;DHT22;38667;42.872;74.622;2023-11-21T08:48:07;16.60;54.20
52799;DHT22;38667;42.872;74.622;2023-11-21T08:50:33;16.60;54.60
52799;DHT22;38667;42.872;74.622;2023-11-21T08:52:59;16.50;54.50
52799;DHT22;38667;42.872;74.622;2023-11-21T08:55:25;16.50;54.60
52799;DHT22;38667;42.872;74.622;2023-11-21T08:57:53;16.50;54.50
52799;DHT22;38667;42.872;74.622;2023-11-21T09:00:20;16.40;54.20
52799;DHT22;38667;42.872;74.622;2023-11-21T09:02:46;16.40;54.00
52799;DHT22;38667;42.872;74.622;2023-11-21T09:05:13;16.40;54.00
52799;DHT22;38667;42.872;74.622;2023-11-21T09:07:41;16.30;54.30
52799;DHT22;38667;42.872;74.622;2023-11-21T09:10:08;16.30;54.90
52799;DHT22;38667;42.872;74.622;2023-11-21T09:12:35;16.30;54.30
52799;DHT22;38667;42.872;74.622;2023-11-21T09:15:03;16.30;53.90
52799;DHT22;38667;42.872;74.622;2023-11-21T09:17:30;16.30;53.80
52799;DHT22;38667;42.872;74.622;2023-11-21T09:19:56;16.30;53.80
52799;DHT22;38667;42.872;74.622;2023-11-21T09:22:22;16.30;53.70
52799;DHT22;38667;42.872;74.622;2023-11-21T09:24:49;16.20;53.50
52799;DHT22;38667;42.872;74.622;2023-11-21T09:27:15;16.20;53.40
52799;DHT22;38667;42.872;74.622;2023-11-21T09:29:41;16.20;53.00
52799;DHT22;38667;42.872;74.622;2023-11-21T09:32:09;16.20;52.80
52799;DHT22;38667;42.872;74.622;2023-11-21T09:34:35;16.20;52.90
52799;DHT22;38667;42.872;74.622;2023-11-21T09:37:03;16.20;52.80
52799;DHT22;38667;42.872;74.622;2023-11-21T09:39:30;16.20;52.50
52799;DHT22;38667;42.872;74.622;2023-11-21T09:41:59;16.20;52.90
52799;DHT22;38667;42.872;74.622;2023-11-21T09:44:35;16.20;52.60
52799;DHT22;38667;42.872;74.622;2023-11-21T09:47:02;16.20;52.70
52799;DHT22;38667;42.872;74.622;2023-11-21T09:49:32;16.10;52.80
52799;DHT22;38667;42.872;74.622;2023-11-21T09:52:01;16.00;53.40
52799;DHT22;38667;42.872;74.622;2023-11-21T09:54:28;16.00;52.50
52799;DHT22;38667;42.872;74.622;2023-11-21T09:56:55;16.00;52.40
52799;DHT22;38667;42.872;74.622;2023-11-21T09:59:22;16.00;52.40
52799;DHT22;38667;42.872;74.622;2023-11-21T10:01:48;16.00;52.60
52799;DHT22;38667;42.872;74.622;2023-11-21T10:04:14;16.00;52.90
52799;DHT22;38667;42.872;74.622;2023-11-21T10:06:42;16.00;53.10
52799;DHT22;38667;42.872;74.622;2023-11-21T10:09:10;15.90;52.10
52799;DHT22;38667;42.872;74.622;2023-11-21T10:11:39;15.90;52.70
52799;DHT22;38667;42.872;74.622;2023-11-21T10:14:06;15.90;51.80
52799;DHT22;38667;42.872;74.622;2023-11-21T10:16:34;15.90;51.80
52799;DHT22;38667;42.872;74.622;2023-11-21T10:19:00;15.90;51.70
52799;DHT22;38667;42.872;74.622;2023-11-21T10:21:27;15.90;51.30
52799;DHT22;38667;42.872;74.622;2023-11-21T10:23:55;15.90;51.60
52799;DHT22;38667;42.872;74.622;2023-11-21T10:26:22;15.90;51.20
52799;DHT22;38667;42.872;74.622;2023-11-21T10:28:58;15.90;51.40
52799;DHT22;38667;42.872;74.622;2023-11-21T10:31:26;15.90;52.20
52799;DHT22;38667;42.872;74.622;2023-11-21T10:33:52;15.90;52.10
52799;DHT22;38667;42.872;74.622;2023-11-21T10:36:25;15.90;51.10
52799;DHT22;38667;42.872;74.622;2023-11-21T10:38:54;15.90;52.00
52799;DHT22;38667;42.872;74.622;2023-11-21T10:41:20;16.00;51.70
52799;DHT22;38667;42.872;74.622;2023-11-21T10:43:47;16.70;50.10
52799;DHT22;38667;42.872;74.622;2023-11-21T10:46:14;17.60;48.10
52799;DHT22;38667;42.872;74.622;2023-11-21T10:48:42;18.70;45.50
52799;DHT22;38667;42.872;74.622;2023-11-21T10:51:09;19.00;44.60
52799;DHT22;38667;42.872;74.622;2023-11-21T10:53:39;18.40;45.40
52799;DHT22;38667;42.872;74.622;2023-11-21T10:56:08;17.70;47.80
52799;DHT22;38667;42.872;74.622;2023-11-21T10:58:36;17.50;48.20
52799;DHT22;38667;42.872;74.622;2023-11-21T11:01:05;17.10;48.80
52799;DHT22;38667;42.872;74.622;2023-11-21T11:03:32;17.00;49.70
52799;DHT22;38667;42.872;74.622;2023-11-21T11:06:03;16.80;50.10
52799;DHT22;38667;42.872;74.622;2023-11-21T11:08:32;16.50;50.80
52799;DHT22;38667;42.872;74.622;2023-11-21T11:10:58;16.30;51.00
52799;DHT22;38667;42.872;74.622;2023-11-21T11:13:26;16.20;51.00
52799;DHT22;38667;42.872;74.622;2023-11-21T11:15:57;16.00;51.60
52799;DHT22;38667;42.872;74.622;2023-11-21T11:18:24;15.90;51.80
52799;DHT22;38667;42.872;74.622;2023-11-21T11:20:52;15.70;52.30
52799;DHT22;38667;42.872;74.622;2023-11-21T11:23:34;15.60;52.50
52799;DHT22;38667;42.872;74.622;2023-11-21T11:26:12;15.50;52.80
52799;DHT22;38667;42.872;74.622;2023-11-21T11:28:49;15.40;53.20
52799;DHT22;38667;42.872;74.622;2023-11-21T11:31:26;15.20;53.30
52799;DHT22;38667;42.872;74.622;2023-11-21T11:34:01;15.10;53.30
52799;DHT22;38667;42.872;74.622;2023-11-21T11:36:38;15.00;53.90
52799;DHT22;38667;42.872;74.622;2023-11-21T11:39:28;15.00;53.90
52799;DHT22;38667;42.872;74.622;2023-11-21T11:41:56;14.90;54.30
52799;DHT22;38667;42.872;74.622;2023-11-21T11:44:47;14.80;53.80
52799;DHT22;38667;42.872;74.622;2023-11-21T11:47:14;14.80;53.90
52799;DHT22;38667;42.872;74.622;2023-11-21T11:49:56;14.70;54.20
52799;DHT22;38667;42.872;74.622;2023-11-21T11:52:39;14.70;54.30
52799;DHT22;38667;42.872;74.622;2023-11-21T11:55:07;14.60;54.40
52799;DHT22;38667;42.872;74.622;2023-11-21T11:57:35;14.60;55.30
52799;DHT22;38667;42.872;74.622;2023-11-21T12:00:14;14.50;54.60
52799;DHT22;38667;42.872;74.622;2023-11-21T12:02:41;14.40;55.00
52799;DHT22;38667;42.872;74.622;2023-11-21T12:05:09;14.30;55.10
52799;DHT22;38667;42.872;74.622;2023-11-21T12:07:47;14.30;55.50
52799;DHT22;38667;42.872;74.622;2023-11-21T12:10:18;14.20;55.70
52799;DHT22;38667;42.872;74.622;2023-11-21T12:12:47;14.10;56.10
52799;DHT22;38667;42.872;74.622;2023-11-21T12:15:15;14.10;56.50
52799;DHT22;38667;42.872;74.622;2023-11-21T12:17:42;14.00;56.70
52799;DHT22;38667;42.872;74.622;2023-11-21T12:20:10;13.90;57.20
52799;DHT22;38667;42.872;74.622;2023-11-21T12:22:36;13.80;57.70
52799;DHT22;38667;42.872;74.622;2023-11-21T12:25:03;13.80;57.80
52799;DHT22;38667;42.872;74.622;2023-11-21T12:27:29;13.70;57.90
52799;DHT22;38667;42.872;74.622;2023-11-21T12:29:56;13.60;58.00
52799;DHT22;38667;42.872;74.622;2023-11-21T12:32:24;13.70;58.50
52799;DHT22;38667;42.872;74.622;2023-11-21T12:34:50;13.60;58.80
52799;DHT22;38667;42.872;74.622;2023-11-21T12:37:17;13.50;59.00
52799;DHT22;38667;42.872;74.622;2023-11-21T12:39:43;13.50;59.30
52799;DHT22;38667;42.872;74.622;2023-11-21T12:42:10;13.40;59.50
52799;DHT22;38667;42.872;74.622;2023-11-21T12:44:36;13.40;59.80
52799;DHT22;38667;42.872;74.622;2023-11-21T12:47:03;13.40;60.20
52799;DHT22;38667;42.872;74.622;2023-11-21T12:49:30;13.30;60.60
52799;DHT22;38667;42.872;74.622;2023-11-21T12:51:57;13.20;61.20
52799;DHT22;38667;42.872;74.622;2023-11-21T12:54:23;13.10;61.30
52799;DHT22;38667;42.872;74.622;2023-11-21T12:56:50;13.10;61.60
52799;DHT22;38667;42.872;74.622;2023-11-21T12:59:16;13.10;62.20
52799;DHT22;38667;42.872;74.622;2023-11-21T13:01:42;13.00;62.10
52799;DHT22;38667;42.872;74.622;2023-11-21T13:04:09;13.00;62.80
52799;DHT22;38667;42.872;74.622;2023-11-21T13:06:37;13.00;62.90
52799;DHT22;38667;42.872;74.622;2023-11-21T13:09:03;13.00;63.00
52799;DHT22;38667;42.872;74.622;2023-11-21T13:11:31;12.90;63.30
52799;DHT22;38667;42.872;74.622;2023-11-21T13:14:00;12.90;63.60
52799;DHT22;38667;42.872;74.622;2023-11-21T13:16:26;12.90;64.00
52799;DHT22;38667;42.872;74.622;2023-11-21T13:18:52;12.90;64.30
52799;DHT22;38667;42.872;74.622;2023-11-21T13:21:18;12.80;64.40
52799;DHT22;38667;42.872;74.622;2023-11-21T13:23:46;12.80;64.40
52799;DHT22;38667;42.872;74.622;2023-11-21T13:26:13;12.80;64.60
52799;DHT22;38667;42.872;74.622;2023-11-21T13:28:39;12.80;64.70
52799;DHT22;38667;42.872;74.622;2023-11-21T13:31:06;12.80;65.10
52799;DHT22;38667;42.872;74.622;2023-11-21T13:33:32;12.70;64.90
52799;DHT22;38667;42.872;74.622;2023-11-21T13:35:59;12.80;65.10
52799;DHT22;38667;42.872;74.622;2023-11-21T13:38:25;12.80;65.30
52799;DHT22;38667;42.872;74.622;2023-11-21T13:40:53;12.70;65.70
52799;DHT22;38667;42.872;74.622;2023-11-21T13:43:21;12.70;66.10
52799;DHT22;38667;42.872;74.622;2023-11-21T13:45:48;12.60;66.50
52799;DHT22;38667;42.872;74.622;2023-11-21T13:48:14;12.60;66.60
52799;DHT22;38667;42.872;74.622;2023-11-21T13:50:41;12.60;66.90
52799;DHT22;38667;42.872;74.622;2023-11-21T13:53:07;12.60;67.10
52799;DHT22;38667;42.872;74.622;2023-11-21T13:55:33;12.60;67.10
52799;DHT22;38667;42.872;74.622;2023-11-21T13:58:01;12.50;67.60
52799;DHT22;38667;42.872;74.622;2023-11-21T14:00:27;12.50;68.00
52799;DHT22;38667;42.872;74.622;2023-11-21T14:02:54;12.50;68.30
52799;DHT22;38667;42.872;74.622;2023-11-21T14:05:20;12.50;68.40
52799;DHT22;38667;42.872;74.622;2023-11-21T14:07:46;12.30;69.10
52799;DHT22;38667;42.872;74.622;2023-11-21T14:10:13;12.20;69.80
52799;DHT22;38667;42.872;74.622;2023-11-21T14:12:39;12.10;69.80
52799;DHT22;38667;42.872;74.622;2023-11-21T14:15:07;12.10;69.20
52799;DHT22;38667;42.872;74.622;2023-11-21T14:17:34;12.20;69.30
52799;DHT22;38667;42.872;74.622;2023-11-21T14:20:00;12.10;70.00
52799;DHT22;38667;42.872;74.622;2023-11-21T14:22:26;12.10;70.00
52799;DHT22;38667;42.872;74.622;2023-11-21T14:24:52;12.10;70.00
52799;DHT22;38667;42.872;74.622;2023-11-21T14:27:19;12.00;70.40
52799;DHT22;38667;42.872;74.622;2023-11-21T14:29:45;12.00;71.10
52799;DHT22;38667;42.872;74.622;2023-11-21T14:32:13;11.90;71.50
52799;DHT22;38667;42.872;74.622;2023-11-21T14:34:39;11.80;71.90
52799;DHT22;38667;42.872;74.622;2023-11-21T14:37:05;11.80;72.10
52799;DHT22;38667;42.872;74.622;2023-11-21T14:39:32;11.70;72.10
52799;DHT22;38667;42.872;74.622;2023-11-21T14:41:58;11.70;72.30
52799;DHT22;38667;42.872;74.622;2023-11-21T14:44:24;11.60;72.50
52799;DHT22;38667;42.872;74.622;2023-11-21T14:46:51;11.60;72.70
52799;DHT22;38667;42.872;74.622;2023-11-21T14:49:18;11.50;73.70
52799;DHT22;38667;42.872;74.622;2023-11-21T14:51:46;11.40;74.00
52799;DHT22;38667;42.872;74.622;2023-11-21T14:54:12;11.40;73.80
52799;DHT22;38667;42.872;74.622;2023-11-21T14:56:39;11.40;73.80
52799;DHT22;38667;42.872;74.622;2023-11-21T14:59:05;11.40;74.00
52799;DHT22;38667;42.872;74.622;2023-11-21T15:01:31;11.30;74.30
52799;DHT22;38667;42.872;74.622;2023-11-21T15:03:58;11.30;74.60
52799;DHT22;38667;42.872;74.622;2023-11-21T15:06:26;11.20;75.30
52799;DHT22;38667;42.872;74.622;2023-11-21T15:08:52;11.10;75.20
52799;DHT22;38667;42.872;74.622;2023-11-21T15:11:19;11.20;74.20
52799;DHT22;38667;42.872;74.622;2023-11-21T15:13:45;11.20;73.60
52799;DHT22;38667;42.872;74.622;2023-11-21T15:16:12;11.20;73.40
52799;DHT22;38667;42.872;74.622;2023-11-21T15:18:38;11.10;73.50